Terminal Aerodrome Forecast
Issued by NWS Missoula, MT

Home | Current Version | Previous Version | Text Only | Print | Product List | Glossary On
Versions: 1 2 3 4 5 6 7 8 9 10 11 12 13 14 15 16 17 18 19 20 21 22
321
FTUS45 KMSO 140520
TAFGPI
TAF
KGPI 140520Z 1406/1506 20008KT P6SM VCSH BKN060
     FM140800 18007KT 4SM -SHRASN BR BKN035 OVC050
     FM141300 20006KT P6SM VCSH SCT010 BKN050=

USA.gov is the U.S. government's official web portal to all federal, state and local government web resources and services.